Time;durP1;ratioP1;P1;durP2;ratioP2;P2;SDS_P1;SDS_P2;PMS_P1;PMS_P2;Temp;Humidity;BMP_temperature;BMP_pressure;BME280_temperature;BME280_humidity;BME280_pressure;Samples;Min_cycle;Max_cycle;Signal;HPM_P1;HPM_P2
2023/07/28 00:00:05;;;;;;;5.20;3.40;;;;;;;15.53;67.67;99295.32;130593;1258;107632;-77
2023/07/28 00:03:35;;;;;;;9.20;4.50;;;;;;;15.59;67.70;99294.90;130613;1258;107759;-77
2023/07/28 00:06:41;;;;;;;5.80;3.90;;;;;;;15.64;67.66;99297.98;130567;1268;107539;-77
2023/07/28 00:09:46;;;;;;;5.30;3.80;;;;;;;15.67;67.88;99296.66;130637;1253;107145;-77
2023/07/28 00:12:52;;;;;;;7.90;4.40;;;;;;;15.71;67.86;99293.05;130592;1255;107233;-77
2023/07/28 00:15:57;;;;;;;4.40;3.80;;;;;;;15.74;68.14;99287.23;130552;1256;106502;-77
2023/07/28 00:19:03;;;;;;;6.40;3.70;;;;;;;15.73;67.94;99283.47;130670;1257;107632;-77
2023/07/28 00:22:08;;;;;;;4.70;3.80;;;;;;;15.75;68.03;99281.08;130652;1256;107503;-77
2023/07/28 00:25:14;;;;;;;7.00;3.60;;;;;;;15.77;68.37;99283.02;130588;1259;107456;-77
2023/07/28 00:28:19;;;;;;;5.30;3.00;;;;;;;15.78;68.16;99277.51;130574;1257;107375;-77
2023/07/28 00:31:26;;;;;;;3.90;3.10;;;;;;;15.78;67.93;99274.65;130606;1253;108639;-77
2023/07/28 00:34:32;;;;;;;4.90;3.80;;;;;;;15.80;67.96;99269.59;130474;1257;278362;-76
2023/07/28 00:37:37;;;;;;;4.50;3.50;;;;;;;15.85;67.90;99269.34;130559;1257;107379;-76
2023/07/28 00:40:43;;;;;;;5.70;3.20;;;;;;;15.88;68.16;99274.45;130613;1257;107578;-77
2023/07/28 00:43:48;;;;;;;4.90;3.40;;;;;;;15.89;68.22;99278.96;130558;1260;107996;-77
2023/07/28 00:46:55;;;;;;;4.40;3.70;;;;;;;15.89;68.40;99276.16;130652;1253;105797;-77
2023/07/28 00:50:00;;;;;;;4.30;3.60;;;;;;;15.88;68.20;99269.04;130547;1253;107277;-77
2023/07/28 00:53:06;;;;;;;4.80;3.40;;;;;;;15.89;68.51;99268.61;130682;1253;108149;-77
2023/07/28 00:56:13;;;;;;;4.70;3.70;;;;;;;15.89;68.87;99263.20;130621;1257;107439;-77
2023/07/28 00:59:19;;;;;;;3.50;3.00;;;;;;;15.85;68.87;99263.23;130601;1257;107538;-77
2023/07/28 01:02:24;;;;;;;5.20;3.20;;;;;;;15.82;69.28;99263.59;130683;1259;107305;-77
2023/07/28 01:05:37;;;;;;;3.40;3.00;;;;;;;15.81;69.48;99265.21;130656;1257;107480;-77
2023/07/28 01:08:48;;;;;;;4.70;3.80;;;;;;;15.83;69.81;99262.19;130606;1259;107523;-77
2023/07/28 01:11:58;;;;;;;6.30;3.80;;;;;;;15.88;69.79;99258.86;130610;1259;107361;-77
2023/07/28 01:15:04;;;;;;;4.30;3.80;;;;;;;15.86;69.87;99246.77;130611;1252;105974;-77
2023/07/28 01:18:09;;;;;;;5.50;3.70;;;;;;;15.87;70.31;99245.75;130772;1258;107405;-77
2023/07/28 01:21:22;;;;;;;3.90;3.50;;;;;;;15.88;70.19;99252.08;130585;1254;106325;-76
2023/07/28 01:24:38;;;;;;;4.40;3.60;;;;;;;15.86;70.42;99245.61;130598;1257;107511;-77
2023/07/28 01:27:45;;;;;;;4.20;3.40;;;;;;;15.88;70.54;99239.66;130582;1260;107419;-77
2023/07/28 01:30:51;;;;;;;5.10;3.80;;;;;;;15.88;70.59;99234.02;130702;1253;107266;-76
2023/07/28 01:33:57;;;;;;;5.20;3.80;;;;;;;15.89;70.48;99233.98;130704;1256;108512;-77
2023/07/28 01:37:02;;;;;;;4.20;3.60;;;;;;;15.92;70.39;99227.13;130641;1258;107433;-77
2023/07/28 01:40:10;;;;;;;4.50;3.90;;;;;;;15.93;70.39;99229.99;130622;1257;107506;-77
2023/07/28 01:43:15;;;;;;;6.10;4.00;;;;;;;15.94;70.70;99229.42;130677;1257;107471;-77
2023/07/28 01:46:21;;;;;;;5.30;3.90;;;;;;;15.92;70.55;99220.23;130712;1253;107233;-77
2023/07/28 01:49:26;;;;;;;4.50;4.10;;;;;;;15.93;70.73;99218.33;130735;1253;107526;-76
2023/07/28 01:52:32;;;;;;;4.20;3.30;;;;;;;15.91;71.14;99219.02;130648;1253;105702;-77
2023/07/28 01:55:37;;;;;;;4.20;3.40;;;;;;;15.88;71.13;99214.70;130676;1260;107584;-77
2023/07/28 01:58:43;;;;;;;4.20;3.70;;;;;;;15.89;71.31;99211.55;130667;1257;106421;-77
2023/07/28 02:01:48;;;;;;;4.10;3.50;;;;;;;15.91;71.29;99217.70;130582;1253;107580;-77
2023/07/28 02:04:54;;;;;;;4.70;3.80;;;;;;;15.94;71.46;99221.34;130633;1259;107449;-77
2023/07/28 02:08:00;;;;;;;4.60;4.00;;;;;;;15.91;71.31;99215.19;130593;1257;107543;-77
2023/07/28 02:11:05;;;;;;;5.10;4.30;;;;;;;15.89;71.22;99219.56;130632;1259;107564;-77
2023/07/28 02:14:12;;;;;;;5.20;4.30;;;;;;;15.90;71.31;99211.02;130693;1253;107434;-77
2023/07/28 02:17:18;;;;;;;5.70;4.40;;;;;;;15.92;71.41;99213.89;130682;1257;107474;-77
2023/07/28 02:20:23;;;;;;;4.10;3.70;;;;;;;15.90;71.38;99214.89;130610;1253;107443;-77
2023/07/28 02:23:30;;;;;;;3.70;3.30;;;;;;;15.90;71.42;99211.39;130636;1253;107500;-76
2023/07/28 02:26:35;;;;;;;6.00;3.70;;;;;;;15.92;71.64;99212.78;130615;1259;105707;-77
2023/07/28 02:29:41;;;;;;;6.50;4.00;;;;;;;15.95;71.60;99208.38;130696;1257;107507;-77
2023/07/28 02:32:48;;;;;;;5.00;3.90;;;;;;;15.99;71.62;99202.81;130693;1258;107519;-76
2023/07/28 02:35:54;;;;;;;5.20;4.20;;;;;;;16.02;71.64;99199.45;130613;1259;107544;-77
2023/07/28 02:39:00;;;;;;;5.10;4.20;;;;;;;16.04;71.60;99197.29;130646;1257;107487;-77
2023/07/28 02:42:06;;;;;;;5.40;4.00;;;;;;;16.04;71.60;99201.05;130597;1257;107560;-75
2023/07/28 02:45:12;;;;;;;4.70;4.10;;;;;;;16.02;71.54;99200.08;130711;1257;106777;-73
2023/07/28 02:48:17;;;;;;;4.00;3.60;;;;;;;16.01;71.77;99196.56;130612;1253;107542;-72
2023/07/28 02:51:23;;;;;;;4.80;3.60;;;;;;;16.01;71.86;99194.95;130642;1257;107550;-72
2023/07/28 02:54:28;;;;;;;4.60;3.90;;;;;;;16.02;71.94;99196.30;130614;1259;107615;-72
2023/07/28 02:57:34;;;;;;;5.00;3.80;;;;;;;16.05;72.06;99196.36;130627;1259;107443;-72
2023/07/28 03:00:41;;;;;;;4.20;3.80;;;;;;;16.08;71.97;99198.63;130652;1257;108535;-72
2023/07/28 03:03:48;;;;;;;4.60;4.20;;;;;;;16.10;72.02;99200.20;130719;1258;107496;-72
2023/07/28 03:06:53;;;;;;;6.20;4.30;;;;;;;16.12;72.29;99196.58;130625;1259;107554;-74
2023/07/28 03:09:59;;;;;;;6.40;4.50;;;;;;;16.12;72.14;99196.70;130654;1259;107377;-72
2023/07/28 03:13:06;;;;;;;5.00;4.30;;;;;;;16.10;72.25;99195.46;130595;1259;106380;-76
2023/07/28 03:16:11;;;;;;;4.50;4.00;;;;;;;16.09;72.34;99186.55;130615;1259;107562;-72
2023/07/28 03:19:17;;;;;;;3.90;3.50;;;;;;;16.10;72.34;99187.06;130630;1259;107563;-72
2023/07/28 03:22:23;;;;;;;3.90;3.50;;;;;;;16.12;72.32;99184.61;130572;1259;107510;-72
2023/07/28 03:25:28;;;;;;;6.60;4.00;;;;;;;16.17;72.36;99179.34;130606;1253;107368;-72
2023/07/28 03:28:34;;;;;;;5.30;4.10;;;;;;;16.22;72.50;99181.11;130637;1259;107532;-72
2023/07/28 03:31:39;;;;;;;5.80;4.50;;;;;;;16.25;72.40;99180.86;130671;1253;108045;-72
2023/07/28 03:34:45;;;;;;;4.80;4.10;;;;;;;16.25;72.37;99181.02;130679;1259;107648;-73
2023/07/28 03:37:51;;;;;;;6.40;4.60;;;;;;;16.28;72.40;99180.83;130660;1260;107400;-72
2023/07/28 03:40:57;;;;;;;5.20;4.00;;;;;;;16.30;72.45;99175.27;130583;1259;106442;-72
2023/07/28 03:44:03;;;;;;;4.80;4.10;;;;;;;16.32;72.46;99172.07;130539;1259;107541;-73
2023/07/28 03:47:09;;;;;;;6.10;4.10;;;;;;;16.32;72.48;99172.77;130797;1254;106664;-72
2023/07/28 03:50:14;;;;;;;5.80;3.80;;;;;;;16.33;72.53;99174.98;130563;1259;108669;-72
2023/07/28 03:53:20;;;;;;;6.40;4.00;;;;;;;16.35;72.70;99173.67;130690;1259;107509;-72
2023/07/28 03:56:27;;;;;;;5.70;4.10;;;;;;;16.40;72.68;99171.40;130669;1258;107607;-72
2023/07/28 03:59:33;;;;;;;4.40;4.00;;;;;;;16.45;72.67;99171.07;130576;1258;107480;-72
2023/07/28 04:02:39;;;;;;;6.50;5.00;;;;;;;16.51;72.72;99167.55;130678;1253;107527;-73
2023/07/28 04:05:45;;;;;;;6.90;4.30;;;;;;;16.55;72.53;99167.31;130795;1256;106313;-73
2023/07/28 04:08:50;;;;;;;6.00;4.30;;;;;;;16.57;72.56;99166.15;130613;1259;107487;-73
2023/07/28 04:11:56;;;;;;;5.00;4.50;;;;;;;16.58;72.49;99163.65;130699;1259;107458;-73
2023/07/28 04:15:01;;;;;;;5.10;4.60;;;;;;;16.59;72.50;99148.77;130640;1258;106708;-73
2023/07/28 04:18:08;;;;;;;6.00;4.40;;;;;;;16.61;72.43;99149.08;130647;1269;107519;-74
2023/07/28 04:21:13;;;;;;;5.50;3.90;;;;;;;16.64;72.55;99147.48;130557;1259;107536;-73
2023/07/28 04:24:18;;;;;;;5.80;4.30;;;;;;;16.70;72.46;99134.95;130539;1259;107444;-73
2023/07/28 04:27:26;;;;;;;5.80;4.50;;;;;;;16.79;72.35;99130.69;130742;1259;107435;-72
2023/07/28 04:30:36;;;;;;;6.70;4.50;;;;;;;16.87;72.37;99130.89;130651;1259;108735;-72
2023/07/28 04:33:43;;;;;;;4.70;4.20;;;;;;;16.95;72.22;99132.58;130664;1254;107225;-72
2023/07/28 04:36:48;;;;;;;5.70;4.40;;;;;;;16.99;72.16;99131.29;130690;1253;107268;-72
2023/07/28 04:39:55;;;;;;;5.30;4.50;;;;;;;17.01;72.09;99121.61;130692;1253;107235;-72
2023/07/28 04:43:00;;;;;;;4.80;4.10;;;;;;;17.05;72.18;99120.27;130740;1257;107495;-72
2023/07/28 04:46:06;;;;;;;5.10;4.40;;;;;;;17.09;72.02;99125.27;130659;1258;107519;-73
2023/07/28 04:49:11;;;;;;;6.10;4.90;;;;;;;17.12;72.04;99121.41;130628;1259;107539;-72
2023/07/28 04:52:36;;;;;;;6.10;4.20;;;;;;;17.17;72.07;99115.71;130742;1267;107627;-72
2023/07/28 04:55:41;;;;;;;5.70;3.70;;;;;;;17.21;72.11;99114.39;130673;1257;106831;-72
2023/07/28 04:58:47;;;;;;;4.90;3.80;;;;;;;17.26;71.94;99112.38;130691;1257;107532;-72
2023/07/28 05:01:53;;;;;;;4.50;3.60;;;;;;;17.33;71.96;99116.37;130714;1259;107585;-72
2023/07/28 05:04:58;;;;;;;4.10;3.50;;;;;;;17.39;71.85;99116.63;130740;1253;105901;-74
2023/07/28 05:08:04;;;;;;;4.30;3.70;;;;;;;17.42;71.84;99112.90;130592;1260;107542;-73
2023/07/28 05:11:09;;;;;;;6.80;3.70;;;;;;;17.43;71.74;99113.89;130697;1253;106695;-72
2023/07/28 05:14:15;;;;;;;5.30;3.40;;;;;;;17.43;71.75;99114.80;130630;1259;107486;-72
2023/07/28 05:17:21;;;;;;;4.10;3.50;;;;;;;17.42;71.81;99112.95;130758;1253;107534;-72
2023/07/28 05:20:49;;;;;;;4.70;3.40;;;;;;;17.42;71.90;99110.75;130645;1259;106466;-73
2023/07/28 05:23:55;;;;;;;4.60;3.10;;;;;;;17.42;71.78;99111.95;130701;1259;107518;-74
2023/07/28 05:27:01;;;;;;;4.50;3.00;;;;;;;17.42;71.89;99113.45;130666;1260;107408;-73
2023/07/28 05:30:09;;;;;;;3.40;2.60;;;;;;;17.42;71.97;99114.85;130667;1254;107352;-73
2023/07/28 05:33:15;;;;;;;3.50;2.90;;;;;;;17.43;72.11;99125.38;130626;1259;107539;-73
2023/07/28 05:36:28;;;;;;;3.00;2.70;;;;;;;17.45;72.21;99125.05;130765;1259;106663;-73
2023/07/28 05:39:36;;;;;;;3.00;2.60;;;;;;;17.48;72.28;99133.62;130711;1258;107505;-73
2023/07/28 05:42:42;;;;;;;2.90;2.60;;;;;;;17.48;72.83;99133.13;130787;1259;107472;-73
2023/07/28 05:45:49;;;;;;;2.90;2.50;;;;;;;17.44;73.10;99134.79;130942;1257;107395;-73
2023/07/28 05:48:58;;;;;;;5.40;3.10;;;;;;;17.39;73.46;99138.80;130851;1256;107492;-73
2023/07/28 05:52:04;;;;;;;4.00;2.80;;;;;;;17.32;73.86;99137.83;130707;1259;107459;-73
2023/07/28 05:55:11;;;;;;;7.90;2.90;;;;;;;17.24;74.14;99127.91;130667;1259;107543;-73
2023/07/28 05:58:17;;;;;;;4.30;2.70;;;;;;;17.21;74.37;99114.93;130713;1257;107494;-73
2023/07/28 06:01:25;;;;;;;3.40;2.70;;;;;;;17.19;74.76;99114.12;130775;1259;107375;-73
2023/07/28 06:05:01;;;;;;;4.40;3.10;;;;;;;17.15;74.89;99100.56;130874;1256;107512;-73
2023/07/28 06:08:07;;;;;;;4.00;3.00;;;;;;;17.11;74.90;99097.87;130656;1259;107568;-74
2023/07/28 06:11:12;;;;;;;4.50;3.10;;;;;;;17.07;75.26;99104.82;130600;1253;107566;-73
2023/07/28 06:14:18;;;;;;;4.30;3.00;;;;;;;17.04;75.36;99098.56;130692;1253;107349;-73
2023/07/28 06:17:27;;;;;;;3.90;2.90;;;;;;;17.02;75.46;99095.89;130726;1259;107465;-73
2023/07/28 06:20:34;;;;;;;5.20;3.10;;;;;;;17.05;75.71;99094.28;130630;1259;107250;-73
2023/07/28 06:23:40;;;;;;;4.00;3.30;;;;;;;17.10;75.74;99090.87;130689;1258;107542;-73
2023/07/28 06:26:45;;;;;;;5.30;3.70;;;;;;;17.14;75.84;99091.27;130588;1258;107352;-73
2023/07/28 06:29:51;;;;;;;4.30;3.30;;;;;;;17.17;76.01;99102.12;130709;1259;107396;-73
2023/07/28 06:32:56;;;;;;;3.90;3.20;;;;;;;17.19;76.09;99107.77;130600;1267;106761;-73
2023/07/28 06:36:02;;;;;;;5.50;3.60;;;;;;;17.24;76.19;99107.67;130710;1260;107356;-74
2023/07/28 06:39:08;;;;;;;4.20;3.50;;;;;;;17.31;76.42;99115.18;130746;1258;107569;-73
2023/07/28 06:42:13;;;;;;;5.20;3.80;;;;;;;17.41;76.59;99110.88;130674;1259;107552;-73
2023/07/28 06:45:19;;;;;;;5.30;3.60;;;;;;;17.52;76.60;99106.94;130703;1260;107523;-73
2023/07/28 06:48:24;;;;;;;4.20;3.70;;;;;;;17.64;76.61;99095.40;130756;1253;107119;-73
2023/07/28 06:51:30;;;;;;;4.90;3.80;;;;;;;17.77;76.84;99086.35;130741;1254;107515;-73
2023/07/28 06:54:36;;;;;;;4.20;3.50;;;;;;;17.87;76.79;99089.94;130715;1259;107252;-73
2023/07/28 06:57:41;;;;;;;4.10;3.40;;;;;;;17.93;76.91;99094.73;130773;1259;107368;-73
2023/07/28 07:00:47;;;;;;;5.50;3.70;;;;;;;18.01;77.10;99095.99;130820;1257;107270;-73
2023/07/28 07:03:53;;;;;;;5.00;3.90;;;;;;;18.11;77.03;99096.87;130800;1259;107382;-73
2023/07/28 07:06:59;;;;;;;4.90;4.00;;;;;;;18.19;77.18;99096.44;130739;1260;107659;-73
2023/07/28 07:10:06;;;;;;;4.20;3.60;;;;;;;18.26;77.32;99092.02;130765;1265;107559;-72
2023/07/28 07:13:12;;;;;;;3.80;3.30;;;;;;;18.33;77.36;99094.14;130580;1254;107378;-72
2023/07/28 07:16:18;;;;;;;4.30;3.50;;;;;;;18.45;77.69;99091.09;130677;1260;107587;-73
2023/07/28 07:19:23;;;;;;;4.70;3.70;;;;;;;18.69;77.92;99096.67;130727;1259;107573;-72
2023/07/28 07:22:29;;;;;;;5.20;3.40;;;;;;;18.87;77.59;99097.13;130809;1259;107459;-72
2023/07/28 07:25:35;;;;;;;5.00;4.20;;;;;;;19.01;77.44;99090.72;130771;1258;107540;-72
2023/07/28 07:28:43;;;;;;;4.80;4.30;;;;;;;19.12;77.24;99087.17;130773;1259;107616;-73
2023/07/28 07:31:48;;;;;;;4.40;3.90;;;;;;;19.17;77.11;99094.65;130814;1267;107482;-72
2023/07/28 07:34:54;;;;;;;6.00;3.90;;;;;;;19.17;77.05;99098.64;130712;1259;107638;-72
2023/07/28 07:37:59;;;;;;;4.90;3.60;;;;;;;19.13;77.08;99103.59;130584;1259;107451;-73
2023/07/28 07:41:05;;;;;;;5.70;3.80;;;;;;;19.10;77.04;99097.25;130737;1254;107350;-73
2023/07/28 07:44:10;;;;;;;4.50;3.60;;;;;;;19.15;77.26;99094.60;130685;1257;107565;-73
2023/07/28 07:47:16;;;;;;;4.40;3.60;;;;;;;19.26;77.38;99091.63;130712;1257;107697;-73
2023/07/28 07:50:22;;;;;;;5.00;4.00;;;;;;;19.36;77.48;99090.98;130711;1259;106563;-73
2023/07/28 07:53:28;;;;;;;7.30;4.10;;;;;;;19.43;77.42;99088.95;130794;1253;107248;-73
2023/07/28 07:56:34;;;;;;;5.80;4.00;;;;;;;19.52;77.61;99090.50;130670;1260;105538;-73
2023/07/28 07:59:40;;;;;;;5.60;3.90;;;;;;;19.69;77.62;99090.33;130719;1267;107550;-72
2023/07/28 08:02:45;;;;;;;4.90;3.80;;;;;;;19.89;77.58;99083.48;130782;1259;108652;-73
2023/07/28 08:05:51;;;;;;;5.50;4.20;;;;;;;20.06;77.18;99080.81;130762;1256;107333;-73
2023/07/28 08:08:59;;;;;;;5.20;4.10;;;;;;;20.14;76.90;99087.27;130700;1256;107517;-72
2023/07/28 08:12:05;;;;;;;4.00;3.60;;;;;;;20.15;76.85;99085.89;130679;1264;107241;-73
2023/07/28 08:15:12;;;;;;;4.90;4.10;;;;;;;20.23;76.93;99086.51;130681;1253;107357;-73
2023/07/28 08:18:17;;;;;;;5.80;3.90;;;;;;;20.35;76.80;99085.58;130670;1265;107429;-73
2023/07/28 08:21:23;;;;;;;5.00;3.60;;;;;;;20.44;76.73;99080.98;130733;1259;106559;-73
2023/07/28 08:24:29;;;;;;;4.70;3.30;;;;;;;20.53;76.61;99078.88;130689;1267;107231;-72
2023/07/28 08:27:34;;;;;;;5.90;4.10;;;;;;;20.63;76.69;99074.45;130715;1256;107459;-72
2023/07/28 08:30:40;;;;;;;4.50;4.10;;;;;;;20.71;76.58;99075.42;130696;1260;107565;-72
2023/07/28 08:33:45;;;;;;;3.80;3.40;;;;;;;20.73;76.25;99077.63;130738;1265;107570;-73
2023/07/28 08:36:51;;;;;;;4.40;3.60;;;;;;;20.73;76.12;99067.27;130816;1256;107379;-73
2023/07/28 08:39:56;;;;;;;5.20;3.60;;;;;;;20.83;76.20;99070.73;130680;1258;105651;-73
2023/07/28 08:43:02;;;;;;;5.50;3.70;;;;;;;20.93;76.24;99071.57;130632;1267;106539;-72
2023/07/28 08:46:08;;;;;;;5.10;3.50;;;;;;;20.93;75.88;99075.54;130703;1259;106528;-73
2023/07/28 08:49:13;;;;;;;3.90;3.40;;;;;;;20.83;76.11;99075.33;130756;1267;107524;-73
2023/07/28 08:52:19;;;;;;;3.20;2.80;;;;;;;20.69;76.01;99078.27;130697;1259;107489;-73
2023/07/28 08:55:25;;;;;;;4.80;3.30;;;;;;;20.55;76.24;99078.25;130752;1253;107486;-73
2023/07/28 08:58:32;;;;;;;4.10;3.20;;;;;;;20.49;76.37;99068.40;130693;1260;108125;-72
2023/07/28 09:01:43;;;;;;;3.30;2.90;;;;;;;20.48;76.44;99071.05;130671;1257;107439;-72
2023/07/28 09:04:50;;;;;;;3.90;2.90;;;;;;;20.46;76.30;99074.64;130728;1263;107236;-73
2023/07/28 09:07:59;;;;;;;3.10;2.80;;;;;;;20.40;76.40;99075.46;130674;1259;107549;-73
2023/07/28 09:11:07;;;;;;;3.10;2.80;;;;;;;20.29;76.45;99072.80;130672;1253;106491;-73
2023/07/28 09:14:16;;;;;;;3.60;3.00;;;;;;;20.15;76.49;99074.40;130728;1267;107417;-73
2023/07/28 09:17:21;;;;;;;3.40;2.60;;;;;;;20.00;76.71;99081.83;130689;1260;107418;-73
2023/07/28 09:20:34;;;;;;;4.60;2.40;;;;;;;19.84;76.75;99075.39;130653;1258;107564;-73
2023/07/28 09:23:40;;;;;;;3.00;2.70;;;;;;;19.76;77.00;99071.16;130627;1267;107623;-73
2023/07/28 09:26:48;;;;;;;2.80;2.40;;;;;;;19.78;77.23;99078.95;130632;1263;107253;-72
2023/07/28 09:29:56;;;;;;;3.60;2.20;;;;;;;19.89;77.47;99078.34;130691;1254;106810;-73
2023/07/28 09:33:01;;;;;;;2.60;2.40;;;;;;;20.19;77.87;99077.23;130730;1259;106097;-72
2023/07/28 09:36:12;;;;;;;2.40;2.00;;;;;;;20.56;77.66;99070.96;130603;1267;107533;-73
2023/07/28 09:39:18;;;;;;;2.20;1.70;;;;;;;20.93;77.22;99078.45;130680;1257;106493;-72
2023/07/28 09:42:24;;;;;;;2.00;1.60;;;;;;;21.20;76.91;99083.68;130642;1256;107270;-73
2023/07/28 09:45:31;;;;;;;2.50;1.70;;;;;;;21.42;76.23;99081.96;130655;1259;106660;-72
2023/07/28 09:48:39;;;;;;;3.40;1.60;;;;;;;21.46;75.95;99085.45;130594;1257;107531;-72
2023/07/28 09:51:50;;;;;;;2.40;1.70;;;;;;;21.55;76.17;99091.21;130633;1259;107515;-73
2023/07/28 09:55:00;;;;;;;1.80;1.50;;;;;;;21.61;75.85;99092.80;130627;1267;107545;-73
2023/07/28 09:58:09;;;;;;;2.10;1.80;;;;;;;21.74;75.30;99076.44;130637;1257;107544;-73
2023/07/28 10:01:15;;;;;;;2.10;1.40;;;;;;;21.85;75.08;99086.44;130672;1254;105901;-73
2023/07/28 10:04:21;;;;;;;2.30;1.40;;;;;;;21.91;74.72;99088.88;130654;1267;107432;-73
2023/07/28 10:07:27;;;;;;;2.30;1.40;;;;;;;21.86;74.19;99084.50;130650;1262;106546;-73
2023/07/28 10:10:33;;;;;;;1.90;1.40;;;;;;;21.78;74.32;99083.11;130588;1261;107243;-73
2023/07/28 10:13:45;;;;;;;3.10;1.60;;;;;;;21.88;74.50;99082.40;130650;1263;107588;-73
2023/07/28 10:16:51;;;;;;;1.70;1.20;;;;;;;22.05;74.07;99070.50;130643;1267;107251;-73
2023/07/28 10:19:57;;;;;;;2.50;1.50;;;;;;;22.27;74.07;99067.83;130660;1257;107565;-73
2023/07/28 10:23:13;;;;;;;1.40;1.20;;;;;;;22.50;73.80;99064.00;130564;1259;107142;-74
2023/07/28 10:26:35;;;;;;;2.00;1.10;;;;;;;22.68;73.68;99063.48;130600;1267;106546;-73
2023/07/28 10:29:56;;;;;;;1.30;1.20;;;;;;;22.71;73.33;99067.63;130619;1267;107583;-73
2023/07/28 10:33:02;;;;;;;1.40;1.30;;;;;;;22.76;73.35;99068.80;130606;1257;107501;-73
2023/07/28 10:36:35;;;;;;;2.00;1.30;;;;;;;22.81;72.96;99067.58;130627;1254;108115;-73
2023/07/28 10:39:42;;;;;;;1.50;1.30;;;;;;;22.89;72.71;99074.83;130656;1254;107576;-73
2023/07/28 10:42:48;;;;;;;1.40;1.20;;;;;;;22.94;72.62;99082.67;130702;1259;106914;-73
2023/07/28 10:45:53;;;;;;;1.60;1.10;;;;;;;22.94;72.51;99072.55;130631;1267;107444;-73
2023/07/28 10:49:07;;;;;;;1.30;1.10;;;;;;;22.93;72.54;99065.14;130650;1257;107028;-73
2023/07/28 10:52:13;;;;;;;5.40;0.90;;;;;;;22.93;72.08;99069.02;130774;1266;107617;-73
2023/07/28 10:55:20;;;;;;;3.00;1.50;;;;;;;23.03;71.93;99070.39;130652;1266;107543;-73
2023/07/28 10:58:25;;;;;;;1.20;1.10;;;;;;;23.04;71.56;99079.10;130661;1258;107575;-73
2023/07/28 11:01:35;;;;;;;3.10;0.80;;;;;;;23.00;71.84;99077.38;130609;1256;107284;-73
2023/07/28 11:04:46;;;;;;;1.10;0.80;;;;;;;23.07;71.49;99073.25;130746;1257;107153;-73
2023/07/28 11:07:54;;;;;;;1.10;0.80;;;;;;;23.14;71.18;99073.02;130610;1267;107466;-73
2023/07/28 11:11:00;;;;;;;1.30;0.70;;;;;;;23.22;71.11;99065.38;130673;1257;107420;-74
2023/07/28 11:14:07;;;;;;;2.00;0.80;;;;;;;23.30;71.10;99061.55;130595;1262;108516;-73
2023/07/28 11:17:13;;;;;;;1.00;0.90;;;;;;;23.39;70.75;99061.79;130663;1257;107516;-73
2023/07/28 11:20:21;;;;;;;2.00;0.90;;;;;;;23.49;70.46;99067.02;130650;1254;108583;-73
2023/07/28 11:23:27;;;;;;;2.30;0.90;;;;;;;23.60;70.56;99068.45;130690;1257;107546;-73
2023/07/28 11:26:33;;;;;;;1.10;0.80;;;;;;;23.61;69.87;99063.88;130629;1254;106763;-73
2023/07/28 11:29:38;;;;;;;0.80;0.60;;;;;;;23.43;69.35;99064.48;130651;1257;107537;-73
2023/07/28 11:32:46;;;;;;;1.00;0.80;;;;;;;23.32;69.43;99069.39;130649;1260;108094;-73
2023/07/28 11:35:52;;;;;;;3.20;0.80;;;;;;;23.33;69.91;99070.16;130697;1258;107262;-73
2023/07/28 11:39:00;;;;;;;1.20;0.70;;;;;;;23.20;69.47;99067.55;130614;1260;106183;-73
2023/07/28 11:42:07;;;;;;;1.00;0.70;;;;;;;23.06;70.15;99061.45;130615;1257;107647;-73
2023/07/28 11:45:16;;;;;;;0.60;0.60;;;;;;;23.13;69.85;99058.77;130712;1257;107668;-73
2023/07/28 11:48:21;;;;;;;2.20;0.80;;;;;;;23.09;69.64;99062.43;130668;1255;107281;-73
2023/07/28 11:51:28;;;;;;;2.70;0.70;;;;;;;23.10;70.07;99060.97;130735;1257;107460;-73
2023/07/28 11:54:34;;;;;;;0.70;0.70;;;;;;;23.06;69.93;99062.68;130641;1258;108508;-73
2023/07/28 11:57:40;;;;;;;0.70;0.70;;;;;;;22.98;69.90;99060.60;130696;1263;107237;-73
2023/07/28 12:00:46;;;;;;;1.60;0.70;;;;;;;23.03;70.63;99058.14;130688;1260;107537;-73
2023/07/28 12:03:52;;;;;;;1.10;0.70;;;;;;;23.15;70.34;99049.34;130699;1258;108149;-73
2023/07/28 12:07:08;;;;;;;0.70;0.70;;;;;;;23.30;70.15;99046.80;130679;1257;107547;-73
2023/07/28 12:10:15;;;;;;;1.00;0.70;;;;;;;23.40;69.74;99055.37;130715;1267;107409;-74
2023/07/28 12:13:23;;;;;;;0.90;0.80;;;;;;;23.41;69.99;99059.95;130597;1264;107245;-74
2023/07/28 12:16:41;;;;;;;0.90;0.60;;;;;;;23.32;69.63;99068.52;130673;1254;107463;-74
2023/07/28 12:20:00;;;;;;;0.80;0.70;;;;;;;23.17;69.53;99065.52;130669;1257;107366;-74
2023/07/28 12:23:07;;;;;;;2.30;0.70;;;;;;;23.24;69.46;99066.16;130589;1258;107613;-74
2023/07/28 12:26:12;;;;;;;0.80;0.80;;;;;;;23.37;69.45;99063.09;130664;1267;107404;-74
2023/07/28 12:29:18;;;;;;;1.50;0.80;;;;;;;23.64;69.55;99055.08;130752;1257;106578;-74
2023/07/28 12:32:23;;;;;;;1.00;0.80;;;;;;;23.90;68.98;99064.30;130590;1257;107378;-74
2023/07/28 12:35:31;;;;;;;1.50;0.80;;;;;;;24.01;68.59;99064.54;130619;1261;214956;-74
2023/07/28 12:38:37;;;;;;;0.80;0.80;;;;;;;24.03;68.56;99069.13;130709;1259;107286;-74
2023/07/28 12:41:44;;;;;;;0.90;0.90;;;;;;;23.79;68.32;99073.11;130712;1257;107439;-74
2023/07/28 12:44:50;;;;;;;1.10;1.00;;;;;;;23.49;68.39;99063.08;130629;1257;107652;-74
2023/07/28 12:47:56;;;;;;;1.40;0.90;;;;;;;23.34;68.71;99059.71;130717;1257;107553;-74
2023/07/28 12:51:01;;;;;;;2.00;1.00;;;;;;;23.40;68.89;99061.70;130622;1254;106140;-74
2023/07/28 12:54:07;;;;;;;1.10;0.90;;;;;;;23.42;68.71;99060.34;130677;1261;107603;-74
2023/07/28 12:57:12;;;;;;;1.30;0.90;;;;;;;23.39;68.82;99053.80;130627;1254;108201;-74
2023/07/28 13:00:18;;;;;;;0.80;0.80;;;;;;;23.27;68.57;99050.27;130755;1260;107562;-74
2023/07/28 13:03:24;;;;;;;0.80;0.80;;;;;;;23.12;68.85;99044.65;130691;1255;107253;-74
2023/07/28 13:06:29;;;;;;;1.20;1.10;;;;;;;22.97;69.07;99055.16;130663;1257;107407;-74
2023/07/28 13:09:35;;;;;;;0.90;0.90;;;;;;;22.85;69.23;99062.54;130592;1260;107601;-74
2023/07/28 13:12:40;;;;;;;0.80;0.80;;;;;;;22.89;69.56;99063.66;130575;1267;107684;-74
2023/07/28 13:15:46;;;;;;;1.20;0.90;;;;;;;23.08;69.77;99065.52;130565;1257;107534;-74
2023/07/28 13:18:53;;;;;;;1.10;1.00;;;;;;;23.40;69.95;99063.16;130575;1257;106786;-74
2023/07/28 13:21:58;;;;;;;1.20;1.00;;;;;;;23.66;69.39;99060.40;130672;1258;106575;-74
2023/07/28 13:25:04;;;;;;;1.30;1.20;;;;;;;23.80;69.06;99066.41;130662;1256;107557;-74
2023/07/28 13:28:10;;;;;;;1.20;1.10;;;;;;;23.92;69.14;99061.67;130711;1257;107512;-74
2023/07/28 13:31:15;;;;;;;2.00;1.10;;;;;;;24.05;68.90;99062.48;130699;1257;107636;-74
2023/07/28 13:34:21;;;;;;;1.10;1.00;;;;;;;24.03;68.81;99068.30;130622;1257;107372;-74
2023/07/28 13:37:27;;;;;;;1.60;1.00;;;;;;;23.95;68.76;99069.71;130709;1254;108177;-74
2023/07/28 13:40:32;;;;;;;1.20;1.10;;;;;;;23.76;68.72;99069.38;130549;1254;107599;-74
2023/07/28 13:43:40;;;;;;;1.90;1.20;;;;;;;23.52;69.05;99062.98;130614;1257;107562;-74
2023/07/28 13:46:45;;;;;;;1.20;1.10;;;;;;;23.44;69.30;99065.14;130640;1254;107535;-74
2023/07/28 13:49:51;;;;;;;1.40;1.30;;;;;;;23.63;69.26;99062.31;130611;1257;107595;-74
2023/07/28 13:52:56;;;;;;;1.40;1.00;;;;;;;23.75;68.94;99053.69;130595;1257;107309;-74
2023/07/28 13:56:02;;;;;;;1.20;1.10;;;;;;;23.82;68.94;99061.52;130573;1257;107504;-75
2023/07/28 13:59:08;;;;;;;1.10;1.00;;;;;;;23.96;68.70;99067.15;130622;1257;107464;-75
2023/07/28 14:02:13;;;;;;;1.10;1.00;;;;;;;24.04;68.31;99068.73;130610;1260;108670;-75
2023/07/28 14:05:20;;;;;;;1.50;1.00;;;;;;;24.12;68.20;99074.48;130622;1257;107336;-75
2023/07/28 14:08:26;;;;;;;0.90;0.90;;;;;;;24.25;67.86;99067.06;130665;1254;107275;-74
2023/07/28 14:11:31;;;;;;;1.10;1.00;;;;;;;24.32;67.76;99066.30;130638;1258;107236;-74
2023/07/28 14:14:37;;;;;;;1.90;1.10;;;;;;;24.46;67.54;99068.05;130546;1257;107382;-74
2023/07/28 14:17:42;;;;;;;2.40;1.20;;;;;;;24.67;67.41;99067.39;130574;1257;107633;-74